• Join FlightAware (Why Join?)
  • Login
  • US Flag 
12:10PM EDT


 

Airport Tracker/Info


-or-


 

Live Flight TrackerFlight Track Log ✈ AAL832 ✈ 12-Aug-2013 ✈ KLAX - KORD

Flight Track Log - Related Links

Times and Time Zones

All times are in EDT time to prevent confusion due to time zone crossing. See the AAL832 flight status page for this flight to view local times or setup timezone preferences in your user account.

Time Position Orientation Groundspeed Altitude Reporting Facility
EDT Latitude Longitude Course Direction KTS MPH feet Rate Location/Type
01:28PM 33.9200 -118.4690 228° Southwest 206 237 1,900  Level FlightAware
01:29PM 33.9060 -118.4860 225° Southwest 214 246 2,200 1,140 Climbing FlightAware
01:29PM 33.8870 -118.5090 225° Southwest 253 291 2,700 1,260 Climbing FlightAware
01:29PM 33.8740 -118.5190 213° Southwest 268 308 2,900 1,200 Climbing FlightAware
01:29PM 33.8650 -118.5230 200° South 274 315 3,100 1,980 Climbing FlightAware
01:30PM 33.8300 -118.5240 181° South 276 318 4,200 2,280 Climbing FlightAware
01:30PM 33.8030 -118.5230 178° South 273 314 5,000 2,220 Climbing FlightAware
01:31PM 33.7800 -118.5220 178° South 277 319 5,600 2,040 Climbing FlightAware
01:31PM 33.7520 -118.5210 178° South 285 328 6,300 2,220 Climbing FlightAware
01:31PM 33.7250 -118.5200 178° South 284 327 7,100 2,340 Climbing FlightAware
01:31PM 33.7150 -118.5170 166° South 284 327 7,400 2,460 Climbing FlightAware
01:31PM 33.7100 -118.5150 162° South 283 326 7,600 2,580 Climbing FlightAware
01:32PM 33.6970 -118.5030 142° Southeast 282 325 8,100 1,980 Climbing FlightAware
01:32PM 33.6840 -118.4760 120° Southeast 288 331 8,700 1,860 Climbing FlightAware
01:32PM 33.6780 -118.4580 112° Southeast 292 336 9,100 2,100 Climbing FlightAware
01:33PM 33.6690 -118.4260 109° East 295 339 9,800 1,680 Climbing FlightAware
01:33PM 33.6540 -118.3770 110° East 316 364 10,600 1,200 Climbing FlightAware
01:34PM 33.6440 -118.3020 99° East 355 409 11,300 1,980 Climbing FlightAware
01:35PM 33.6440 -118.2020 90° East 353 406 13,600 2,700 Climbing FlightAware
01:35PM 33.6450 -118.1360 89° East 356 410 15,100 2,460 Climbing FlightAware
01:36PM 33.6450 -118.0640 90° East 365 420 16,500 2,400 Climbing FlightAware
01:36PM 33.6450 -117.9920 90° East 370 426 18,000 2,340 Climbing FlightAware
01:37PM 33.6440 -117.9240 91° East 376 433 19,200 1,860 Climbing FlightAware
01:37PM 33.6440 -117.8440 90° East 393 452 20,200 1,080 Climbing FlightAware
01:38PM 33.6440 -117.7660 90° East 422 486 20,600 1,140 Climbing FlightAware
01:39PM 33.6430 -117.6850 91° East 434 499 21,500 1,500 Climbing FlightAware
01:39PM 33.6430 -117.6030 90° East 446 513 22,300 1,440 Climbing FlightAware
01:40PM 33.6430 -117.5110 90° East 458 527 23,200 1,260 Climbing FlightAware
01:40PM 33.6420 -117.4140 91° East 472 543 23,900 1,080 Climbing FlightAware
01:41PM 33.6410 -117.3250 91° East 483 556 24,500 1,140 Climbing FlightAware
01:42PM 33.6410 -117.2380 90° East 492 566 25,200 1,320 Climbing FlightAware
01:42PM 33.6400 -117.1390 91° East 497 572 26,000 1,200 Climbing FlightAware
01:43PM 33.6390 -117.0350 91° East 506 582 26,700 1,020 Climbing FlightAware
01:43PM 33.6380 -116.9260 91° East 516 594 27,300 960 Climbing FlightAware
01:44PM 33.6370 -116.8280 91° East 522 601 27,900 960 Climbing FlightAware
01:45PM 33.6360 -116.7220 91° East 527 606 28,500 1,080 Climbing FlightAware
01:45PM 33.6350 -116.6130 91° East 530 610 29,200 1,140 Climbing FlightAware
01:46PM 33.6330 -116.5120 91° East 529 609 29,900 1,380 Climbing FlightAware
01:46PM 33.6320 -116.4120 91° East 525 604 30,800 1,560 Climbing FlightAware
01:47PM 33.6310 -116.3140 91° East 520 598 31,700 1,380 Climbing FlightAware
01:47PM 33.6300 -116.2290 91° East 519 597 32,300 780 Climbing FlightAware
01:48PM 33.6420 -116.1010 84° East 522 601 32,800 300 Climbing FlightAware
01:49PM 33.6520 -116.0130 82° East 522 601 32,800 1,500 Level FlightAware
01:49PM 33.7110 -115.9080 56° Northeast 522 601 34,500 1,440 Climbing FlightAware
01:50PM 33.7420 -115.8170 68° East 522 601 34,500  Level FlightAware
01:51PM 33.7700 -115.7320 68° East 522 601 34,500  Level FlightAware
01:51PM 33.7980 -115.6500 68° East 522 601 34,500  Level FlightAware
01:52PM 33.8270 -115.5630 68° East 522 601 34,500  Level FlightAware
01:52PM 33.8550 -115.4780 68° East 522 601 34,500  Level FlightAware
01:53PM 33.8820 -115.4000 67° East 522 601 34,500  Level FlightAware
01:54PM 33.9100 -115.3150 68° East 522 601 34,500  Level FlightAware
01:54PM 33.9380 -115.2330 68° East 522 601 34,500 780 Level FlightAware
01:57PM 34.0940 -114.7090 70° East 521 600 37,000 720 Climbing FlightAware
01:58PM 34.1240 -114.6130 69° East 524 603 37,000  Level FlightAware
01:58PM 34.1600 -114.4790 72° East 522 601 37,000  Level FlightAware
01:59PM 34.1880 -114.3780 71° East 522 601 37,000  Level FlightAware
01:59PM 34.2130 -114.2870 72° East 522 601 37,000  Level FlightAware
02:00PM 34.2410 -114.1880 71° East 521 600 37,000  Level FlightAware
02:00PM 34.2650 -114.0990 72° East 520 598 37,000  Level FlightAware
02:01PM 34.2920 -114.0040 71° East 520 598 37,000  Level FlightAware
02:02PM 34.3210 -113.9000 71° East 519 597 37,000  Level FlightAware
02:02PM 34.3460 -113.8090 72° East 519 597 37,000  Level FlightAware
02:03PM 34.3730 -113.7100 72° East 519 597 37,000  Level FlightAware
02:03PM 34.4000 -113.6110 72° East 518 596 37,000  Level FlightAware
02:04PM 34.4260 -113.5160 72° East 519 597 37,000  Level FlightAware
02:05PM 34.4530 -113.4150 72° East 519 597 37,000  Level FlightAware
02:05PM 34.4780 -113.3240 72° East 518 596 37,000  Level FlightAware
02:06PM 34.5010 -113.2400 72° East 518 596 37,000  Level FlightAware
02:06PM 34.5300 -113.1290 72° East 519 597 37,000  Level FlightAware
02:07PM 34.5570 -113.0300 72° East 520 598 37,000  Level FlightAware
02:07PM 34.5840 -112.9310 72° East 521 600 37,000  Level FlightAware
02:08PM 34.6070 -112.8410 73° East 519 597 37,000  Level FlightAware
02:09PM 34.6320 -112.7490 72° East 520 598 37,000  Level FlightAware
02:09PM 34.6580 -112.6480 73° East 520 598 37,000  Level FlightAware
02:10PM 34.6870 -112.5410 72° East 520 598 37,000  Level FlightAware
02:10PM 34.7160 -112.4550 68° East 521 600 37,000  Level FlightAware
02:11PM 34.7600 -112.3650 59° Northeast 520 598 37,000  Level FlightAware
02:12PM 34.8050 -112.2740 59° Northeast 519 597 37,000  Level FlightAware
02:12PM 34.8460 -112.1900 59° Northeast 518 596 37,000  Level FlightAware
02:13PM 34.8840 -112.1130 59° Northeast 518 596 37,000  Level FlightAware
02:13PM 34.9300 -112.0200 59° Northeast 516 594 37,000  Level FlightAware
02:14PM 34.9770 -111.9250 59° Northeast 514 592 37,000  Level FlightAware
02:14PM 35.0180 -111.8420 59° Northeast 515 593 37,000  Level FlightAware
02:15PM 35.0620 -111.7500 60° Northeast 514 592 37,000  Level FlightAware
02:16PM 35.1050 -111.6620 59° Northeast 514 592 37,000  Level FlightAware
02:16PM 35.1440 -111.5810 59° Northeast 515 593 37,000  Level FlightAware
02:17PM 35.1870 -111.4930 59° Northeast 515 593 37,000  Level FlightAware
02:17PM 35.2290 -111.4050 60° Northeast 515 593 37,000  Level FlightAware
02:18PM 35.2720 -111.3170 59° Northeast 515 593 37,000  Level FlightAware
02:18PM 35.3130 -111.2310 60° Northeast 515 593 37,000  Level FlightAware
02:19PM 35.3590 -111.1360 59° Northeast 516 594 37,000  Level FlightAware
02:20PM 35.4000 -111.0480 60° Northeast 518 596 37,000  Level FlightAware
02:20PM 35.4400 -110.9650 59° Northeast 518 596 37,000  Level FlightAware
02:21PM 35.4780 -110.8850 60° Northeast 519 597 37,000  Level FlightAware
02:21PM 35.5260 -110.7830 60° Northeast 519 597 37,000  Level FlightAware
02:22PM 35.5710 -110.6880 60° Northeast 520 598 37,000  Level FlightAware
02:23PM 35.6100 -110.6070 59° Northeast 519 597 37,000  Level FlightAware
02:23PM 35.6530 -110.5150 60° Northeast 520 598 37,000  Level FlightAware
02:24PM 35.6900 -110.4360 60° Northeast 520 598 37,000  Level FlightAware
02:24PM 35.7350 -110.3400 60° Northeast 520 598 37,000  Level FlightAware
02:25PM 35.7780 -110.2480 60° Northeast 519 597 37,000  Level FlightAware
02:26PM 35.8200 -110.1570 60° Northeast 519 597 37,000  Level FlightAware
02:26PM 35.8610 -110.0690 60° Northeast 519 597 37,000  Level FlightAware
02:27PM 35.9030 -109.9780 60° Northeast 518 596 37,000  Level FlightAware
02:28PM 35.9570 -109.8620 60° Northeast 517 595 37,000  Level FlightAware
02:28PM 36.0040 -109.7600 60° Northeast 517 595 37,000  Level FlightAware
02:29PM 36.0600 -109.6380 60° Northeast 518 596 37,000  Level FlightAware
02:30PM 36.1040 -109.5420 60° Northeast 519 597 37,000  Level FlightAware
02:30PM 36.1420 -109.4590 60° Northeast 519 597 37,000  Level FlightAware
02:31PM 36.1770 -109.3840 60° Northeast 519 597 37,000  Level FlightAware
02:31PM 36.2170 -109.2990 60° Northeast 519 597 37,000  Level FlightAware
02:32PM 36.2550 -109.2180 60° Northeast 519 597 37,000  Level FlightAware
02:33PM 36.2920 -109.1370 60° Northeast 519 597 37,000  Level FlightAware
02:33PM 36.3290 -109.0580 60° Northeast 519 597 37,000  Level FlightAware
02:34PM 36.3670 -108.9760 60° Northeast 519 597 37,000  Level FlightAware
02:34PM 36.4040 -108.8970 60° Northeast 519 597 37,000  Level FlightAware
02:35PM 36.4940 -108.6770 63° Northeast 523 602 37,000  Level FlightAware
02:36PM 36.5340 -108.5850 62° Northeast 522 601 37,000  Level FlightAware
02:36PM 36.5720 -108.5000 61° Northeast 522 601 37,000  Level FlightAware
02:37PM 36.6140 -108.4050 61° Northeast 521 600 37,000  Level FlightAware
02:37PM 36.6550 -108.3120 61° Northeast 522 601 37,000  Level FlightAware
02:38PM 36.6930 -108.2250 61° Northeast 521 600 37,000  Level FlightAware
02:39PM 36.7400 -108.1190 61° Northeast 521 600 37,000  Level FlightAware
02:39PM 36.7790 -108.0290 62° Northeast 521 600 37,000  Level FlightAware
02:40PM 36.8210 -107.9350 61° Northeast 520 598 37,000  Level FlightAware
02:40PM 36.8580 -107.8520 61° Northeast 520 598 37,000  Level FlightAware
02:41PM 36.9010 -107.7560 61° Northeast 519 597 37,000  Level FlightAware
02:42PM 36.9430 -107.6600 61° Northeast 519 597 37,000  Level FlightAware
02:42PM 36.9750 -107.5870 61° Northeast 519 597 37,000  Level FlightAware
02:43PM 37.0210 -107.4810 61° Northeast 519 597 37,000  Level FlightAware
02:43PM 37.0610 -107.3890 61° Northeast 519 597 37,000  Level FlightAware
02:44PM 37.1010 -107.2990 61° Northeast 520 598 37,000  Level FlightAware
02:44PM 37.1430 -107.2010 62° Northeast 520 598 37,000  Level FlightAware
02:45PM 37.1830 -107.1080 62° Northeast 523 602 37,000  Level FlightAware
02:46PM 37.2260 -107.0090 61° Northeast 524 603 37,000  Level FlightAware
02:46PM 37.2580 -106.9340 62° Northeast 524 603 37,000  Level FlightAware
02:47PM 37.3030 -106.8320 61° Northeast 527 606 37,000  Level FlightAware
02:47PM 37.3440 -106.7350 62° Northeast 528 608 37,000  Level FlightAware
02:48PM 37.3850 -106.6380 62° Northeast 529 609 37,000  Level FlightAware
02:48PM 37.4260 -106.5430 61° Northeast 530 610 37,000  Level FlightAware
02:49PM 37.4660 -106.4480 62° Northeast 531 611 37,000  Level FlightAware
02:50PM 37.5090 -106.3460 62° Northeast 529 609 37,000  Level FlightAware
02:50PM 37.5194 -106.3210 62° Northeast 530 610 37,000  Level FlightAware ADS-B
02:50PM 37.5547 -106.2370 62° Northeast 531 611 37,000  Level FlightAware ADS-B
02:51PM 37.5923 -106.1480 62° Northeast 533 613 37,000  Level FlightAware ADS-B
02:51PM 37.6325 -106.0520 62° Northeast 532 612 37,000  Level FlightAware ADS-B
02:52PM 37.6683 -105.9670 62° Northeast 530 610 37,000  Level FlightAware ADS-B
02:52PM 37.7031 -105.8830 62° Northeast 529 609 37,000  Level FlightAware ADS-B
02:53PM 37.7370 -105.8010 62° Northeast 528 608 37,000  Level FlightAware ADS-B
02:54PM 37.7728 -105.7150 62° Northeast 528 608 37,000  Level FlightAware ADS-B
02:54PM 37.8073 -105.6320 62° Northeast 527 606 37,000  Level FlightAware ADS-B
02:55PM 37.8476 -105.5340 62° Northeast 527 606 37,000  Level FlightAware ADS-B
02:55PM 37.8815 -105.4520 62° Northeast 527 606 37,000  Level FlightAware ADS-B
02:56PM 37.9150 -105.3700 63° Northeast 528 608 37,000  Level FlightAware ADS-B
02:56PM 37.9488 -105.2870 63° Northeast 527 606 37,000  Level FlightAware ADS-B
02:57PM 37.9835 -105.2020 63° Northeast 530 610 37,000  Level FlightAware ADS-B
02:57PM 38.0185 -105.1160 63° Northeast 532 612 37,000  Level FlightAware ADS-B
02:58PM 38.0531 -105.0300 63° Northeast 534 615 37,000  Level FlightAware ADS-B
02:58PM 38.0877 -104.9450 63° Northeast 534 615 37,000  Level FlightAware ADS-B
02:59PM 38.1234 -104.8570 63° Northeast 535 616 37,000  Level FlightAware ADS-B
02:59PM 38.1585 -104.7690 63° Northeast 536 617 37,000  Level FlightAware ADS-B
03:00PM 38.2179 -104.6210 63° Northeast 537 618 37,000  Level FlightAware ADS-B
03:01PM 38.2563 -104.5250 63° Northeast 537 618 37,000  Level FlightAware ADS-B
03:01PM 38.2970 -104.4220 63° Northeast 535 616 37,000  Level FlightAware
03:02PM 38.3118 -104.3860 62° Northeast 535 616 37,000  Level FlightAware ADS-B
03:02PM 38.3466 -104.3030 65° Northeast 535 616 37,000  Level FlightAware ADS-B
03:03PM 38.3821 -104.2180 62° Northeast 535 616 37,000  Level FlightAware ADS-B
03:03PM 38.4179 -104.1320 62° Northeast 535 616 37,000  Level FlightAware ADS-B
03:04PM 38.4532 -104.0460 62° Northeast 534 615 37,000  Level FlightAware ADS-B
03:04PM 38.4881 -103.9620 62° Northeast 533 613 37,000  Level FlightAware ADS-B
03:05PM 38.5241 -103.8740 62° Northeast 533 613 37,000  Level FlightAware ADS-B
03:05PM 38.5583 -103.7910 62° Northeast 531 611 37,000  Level FlightAware ADS-B
03:06PM 38.5929 -103.7060 62° Northeast 530 610 37,000  Level FlightAware ADS-B
03:06PM 38.6272 -103.6210 63° Northeast 531 611 37,000  Level FlightAware ADS-B
03:07PM 38.6616 -103.5360 63° Northeast 530 610 37,000  Level FlightAware ADS-B
03:07PM 38.6963 -103.4510 62° Northeast 530 610 37,000  Level FlightAware ADS-B
03:08PM 38.7303 -103.3670 63° Northeast 530 610 37,000  Level FlightAware ADS-B
03:08PM 38.7645 -103.2820 63° Northeast 531 611 37,000  Level FlightAware ADS-B
03:09PM 38.7986 -103.1980 62° Northeast 532 612 37,000  Level FlightAware ADS-B
03:09PM 38.8326 -103.1130 63° Northeast 533 613 37,000  Level FlightAware ADS-B
03:10PM 38.8662 -103.0280 63° Northeast 534 615 37,000  Level FlightAware ADS-B
03:10PM 38.8999 -102.9430 63° Northeast 536 617 37,000  Level FlightAware ADS-B
03:11PM 38.9343 -102.8570 63° Northeast 538 619 37,000  Level FlightAware ADS-B
03:11PM 38.9685 -102.7710 63° Northeast 539 620 37,000  Level FlightAware ADS-B
03:12PM 39.0025 -102.6850 63° Northeast 540 621 37,000  Level FlightAware ADS-B
03:12PM 39.0372 -102.5970 63° Northeast 541 623 37,000  Level FlightAware ADS-B
03:13PM 39.0716 -102.5090 63° Northeast 542 624 37,000  Level FlightAware ADS-B
03:13PM 39.1054 -102.4230 63° Northeast 542 624 37,000  Level FlightAware ADS-B
03:14PM 39.1395 -102.3360 63° Northeast 542 624 37,000  Level FlightAware ADS-B
03:14PM 39.1750 -102.2450 63° Northeast 541 623 37,000  Level FlightAware ADS-B
03:15PM 39.2103 -102.1530 64° Northeast 540 621 37,000  Level FlightAware ADS-B
03:15PM 39.2438 -102.0670 63° Northeast 541 623 37,000  Level FlightAware ADS-B
03:16PM 39.2775 -101.9800 63° Northeast 541 623 37,000  Level FlightAware ADS-B
03:16PM 39.3208 -101.8670 64° Northeast 541 623 37,000  Level FlightAware ADS-B
03:17PM 39.3646 -101.7530 64° Northeast 540 621 37,000  Level FlightAware ADS-B
03:17PM 39.3741 -101.7300 62° Northeast 539 620 37,000  Level FlightAware ADS-B
03:17PM 39.3880 -101.6990 60° Northeast 536 617 37,000  Level FlightAware ADS-B
03:18PM 39.4021 -101.6720 56° Northeast 533 613 37,000  Level FlightAware ADS-B
03:18PM 39.4472 -101.5980 52° Northeast 528 608 37,000  Level FlightAware ADS-B
03:19PM 39.4944 -101.5220 51° Northeast 528 608 37,000  Level FlightAware ADS-B
03:19PM 39.5413 -101.4470 51° Northeast 526 605 37,000  Level FlightAware ADS-B
03:20PM 39.5871 -101.3730 51° Northeast 525 604 37,000  Level FlightAware ADS-B
03:20PM 39.6340 -101.2970 51° Northeast 524 603 37,000  Level FlightAware ADS-B
03:21PM 39.6809 -101.2220 51° Northeast 523 602 37,000  Level FlightAware ADS-B
03:21PM 39.7262 -101.1490 51° Northeast 521 600 37,000  Level FlightAware ADS-B
03:22PM 39.7718 -101.0750 51° Northeast 520 598 37,000  Level FlightAware ADS-B
03:22PM 39.8231 -100.9933 51° Northeast 518 596 37,000  Level Denver Center
03:23PM 39.9075 -100.8531 52° Northeast 516 594 37,000  Level Denver Center
03:24PM 40.0078 -100.6883 51° Northeast 520 598 37,000  Level Denver Center
03:25PM 40.0922 -100.5483 52° Northeast 517 595 37,000  Level Denver Center
03:26PM 40.1911 -100.3842 52° Northeast 518 596 37,000  Level Denver Center
03:32PM 40.6680 -99.5840 52° Northeast 512 589 37,000  Level FlightAware
03:32PM 40.7230 -99.4900 52° Northeast 512 589 37,000  Level FlightAware
03:33PM 40.8040 -99.3510 52° Northeast 510 587 37,000  Level FlightAware
03:34PM 40.8690 -99.2400 52° Northeast 510 587 37,000  Level FlightAware
03:35PM 40.9350 -99.1250 53° Northeast 510 587 37,000  Level FlightAware
03:35PM 40.9840 -99.0400 53° Northeast 508 585 37,000  Level FlightAware
03:36PM 41.0360 -98.9500 53° Northeast 508 585 37,000  Level FlightAware
03:37PM 41.0890 -98.8600 52° Northeast 507 583 37,000  Level FlightAware
03:38PM 41.1580 -98.7390 53° Northeast 505 581 37,000  Level FlightAware
03:40PM 41.3290 -98.4370 53° Northeast 37,000  Level FlightAware
03:40PM 41.3710 -98.3550 56° Northeast 500 575 37,000  Level FlightAware
03:41PM 41.4130 -98.2400 64° Northeast 505 581 37,000  Level FlightAware
03:41PM 41.4460 -98.1400 66° East 505 581 37,000  Level FlightAware
03:42PM 41.4750 -98.0490 67° East 505 581 37,000  Level FlightAware
03:43PM 41.5090 -97.9440 67° East 505 581 37,000  Level FlightAware
03:43PM 41.5480 -97.8240 66° East 505 581 37,000  Level FlightAware
03:44PM 41.5840 -97.7100 67° East 505 581 37,000  Level FlightAware
03:44PM 41.6090 -97.6320 67° East 506 582 37,000  Level FlightAware
03:45PM 41.6480 -97.5110 67° East 507 583 37,000  Level FlightAware
03:46PM 41.6780 -97.4180 67° East 508 585 37,000  Level FlightAware
03:46PM 41.7090 -97.3200 67° East 507 583 37,000  Level FlightAware
03:47PM 41.7370 -97.2280 68° East 507 583 37,000  Level FlightAware
03:47PM 41.7740 -97.1130 67° East 507 583 37,000  Level FlightAware
03:48PM 41.8120 -96.9890 68° East 507 583 37,000  Level FlightAware
03:49PM 41.8480 -96.8740 67° East 507 583 37,000  Level FlightAware
03:49PM 41.8800 -96.7710 67° East 507 583 37,000  Level FlightAware
03:50PM 41.9110 -96.6720 67° East 507 583 37,000  Level FlightAware
03:50PM 41.9430 -96.5680 67° East 507 583 37,000  Level FlightAware
03:51PM 41.9850 -96.4330 67° East 506 582 37,000  Level FlightAware
03:52PM 42.0240 -96.3020 68° East 507 583 37,000  Level FlightAware
03:53PM 42.0540 -96.2030 68° East 507 583 37,000  Level FlightAware
03:53PM 42.0900 -96.0830 68° East 506 582 37,000  Level FlightAware
03:54PM 42.1310 -95.9470 68° East 506 582 37,000  Level FlightAware
03:55PM 42.1610 -95.8470 68° East 507 583 37,000  Level FlightAware
03:55PM 42.1820 -95.7760 68° East 506 582 37,000  Level FlightAware
03:56PM 42.2150 -95.6650 68° East 506 582 37,000  Level FlightAware
03:56PM 42.2440 -95.5680 68° East 507 583 37,000  Level FlightAware
03:57PM 42.2720 -95.4730 68° East 507 583 37,000  Level FlightAware
03:57PM 42.3040 -95.3640 68° East 507 583 37,000  Level FlightAware
03:58PM 42.3290 -95.2490 74° East 511 588 37,000  Level FlightAware
03:59PM 42.3380 -95.1430 83° East 513 590 37,000  Level FlightAware
03:59PM 42.3450 -95.0430 85° East 513 590 37,000  Level FlightAware
04:00PM 42.3530 -94.9310 84° East 513 590 37,000  Level FlightAware
04:00PM 42.3620 -94.8080 84° East 512 589 37,000  Level FlightAware
04:01PM 42.3710 -94.6770 85° East 512 589 37,000  Level FlightAware
04:02PM 42.3800 -94.5560 84° East 513 590 37,000  Level FlightAware
04:02PM 42.3870 -94.4440 85° East 513 590 37,000  Level FlightAware
04:03PM 42.3940 -94.3430 85° East 511 588 37,000  Level FlightAware
04:03PM 42.4020 -94.2260 85° East 511 588 37,000  Level FlightAware
04:04PM 42.4100 -94.1110 85° East 510 587 37,000  Level FlightAware
04:04PM 42.4160 -94.0170 85° East 510 587 37,000  Level FlightAware
04:05PM 42.4230 -93.8980 85° East 509 586 37,000  Level FlightAware
04:06PM 42.4300 -93.7820 85° East 510 587 37,000  Level FlightAware
04:06PM 42.4370 -93.6670 85° East 510 587 37,000  Level FlightAware
04:07PM 42.4430 -93.5680 85° East 511 588 37,000  Level FlightAware
04:07PM 42.4500 -93.4620 85° East 511 588 37,000  Level FlightAware
04:08PM 42.4570 -93.3410 85° East 512 589 37,000  Level FlightAware
04:09PM 42.4630 -93.2220 86° East 512 589 37,000  Level FlightAware
04:09PM 42.4690 -93.1200 85° East 512 589 37,000  Level FlightAware
04:10PM 42.4760 -93.0050 85° East 512 589 37,000  Level FlightAware
04:10PM 42.4820 -92.8890 86° East 512 589 37,000  Level FlightAware
04:11PM 42.4880 -92.7760 86° East 512 589 37,000 -360 Level FlightAware
04:11PM 42.4940 -92.6710 86° East 511 588 36,600 -900 Descending FlightAware
04:12PM 42.5000 -92.5530 86° East 507 583 36,000 -960 Descending FlightAware
04:13PM 42.5050 -92.4510 86° East 508 585 35,500 -960 Descending FlightAware
04:13PM 42.5110 -92.3350 86° East 505 581 34,900 -960 Descending FlightAware
04:14PM 42.5160 -92.2330 86° East 507 583 34,400 -960 Descending FlightAware
04:14PM 42.5210 -92.1090 87° East 506 582 33,800 -1,020 Descending FlightAware
04:15PM 42.5240 -92.0040 88° East 505 581 33,200 -660 Descending FlightAware
04:16PM 42.5250 -91.8730 89° East 505 581 33,000 -180 Descending FlightAware
04:16PM 42.5260 -91.7640 89° East 504 580 33,000 -480 Level FlightAware
04:17PM 42.5260 -91.6560 90° East 503 579 32,500 -960 Descending FlightAware
04:17PM 42.5270 -91.5400 89° East 503 579 31,900 -1,020 Descending FlightAware
04:18PM 42.5270 -91.4210 90° East 506 582 31,300 -900 Descending FlightAware
04:18PM 42.5270 -91.3500 90° East 509 586 31,000 -1,020 Descending FlightAware
04:19PM 42.5270 -91.2280 90° East 508 585 30,300 -1,020 Descending FlightAware
04:20PM 42.5270 -91.1420 90° East 506 582 29,900 -1,020 Descending FlightAware
04:20PM 42.5270 -91.0050 90° East 501 577 29,100 -1,080 Descending FlightAware
04:21PM 42.5270 -90.9010 90° East 499 574 28,500 -1,020 Descending FlightAware
04:21PM 42.5260 -90.7980 91° East 490 564 28,000 -1,080 Descending FlightAware
04:22PM 42.5260 -90.6880 90° East 481 554 27,300 -1,020 Descending FlightAware
04:23PM 42.5250 -90.5830 91° East 479 551 26,800 -1,020 Descending FlightAware
04:23PM 42.5240 -90.4880 91° East 477 549 26,200 -1,080 Descending FlightAware
04:24PM 42.5240 -90.3800 90° East 472 543 25,600 -960 Descending FlightAware
04:24PM 42.5230 -90.2690 91° East 466 536 25,000 -1,020 Descending FlightAware
04:25PM 42.5220 -90.1820 91° East 462 532 24,500 -1,080 Descending FlightAware
04:25PM 42.5210 -90.0710 91° East 455 524 23,800 -1,080 Descending FlightAware
04:26PM 42.5210 -90.0060 90° East 450 518 23,400 -840 Descending FlightAware
04:26PM 42.5200 -89.9020 91° East 448 516 23,000 -360 Descending FlightAware
04:27PM 42.5190 -89.7980 91° East 436 502 23,000 -540 Level FlightAware
04:28PM 42.5170 -89.6990 92° East 433 498 22,400 -1,020 Descending FlightAware
04:28PM 42.5160 -89.6140 91° East 430 495 21,900 -1,020 Descending FlightAware
04:29PM 42.5140 -89.5170 92° East 428 493 21,300 -1,020 Descending FlightAware
04:29PM 42.5130 -89.4230 91° East 423 487 20,700 -1,020 Descending FlightAware
04:30PM 42.5110 -89.3270 92° East 418 481 20,100 -1,080 Descending FlightAware
04:31PM 42.5100 -89.2390 91° East 416 479 19,500 -1,080 Descending FlightAware
04:31PM 42.5090 -89.1510 91° East 411 473 18,900 -960 Descending FlightAware
04:32PM 42.5080 -89.0630 91° East 409 471 18,400 -1,020 Descending FlightAware
04:32PM 42.5080 -88.9810 90° East 405 466 17,800 -1,140 Descending FlightAware
04:33PM 42.4910 -88.8810 103° East 397 457 17,100 -1,140 Descending FlightAware
04:33PM 42.4690 -88.8080 112° Southeast 378 435 16,500 -1,080 Descending FlightAware
04:34PM 42.4470 -88.7350 112° Southeast 361 415 15,900 -1,020 Descending FlightAware
04:35PM 42.4230 -88.6570 113° Southeast 344 396 15,300 -900 Descending FlightAware
04:35PM 42.4070 -88.6220 122° Southeast 322 371 15,100 -600 Descending FlightAware
04:35PM 42.3930 -88.6110 150° Southeast 306 352 15,000 -240 Descending FlightAware
04:35PM 42.3750 -88.6070 171° South 287 330 15,000  Level FlightAware
04:36PM 42.3520 -88.6160 196° South 268 308 15,000  Level FlightAware
04:36PM 42.3420 -88.6260 216° Southwest 263 303 15,000 -300 Level FlightAware
04:36PM 42.3340 -88.6440 239° Southwest 257 296 14,900 -660 Descending FlightAware
04:36PM 42.3290 -88.6660 253° West 251 289 14,700 -960 Descending FlightAware
04:37PM 42.3370 -88.7080 284° West 248 285 14,200 -1,140 Descending FlightAware
04:37PM 42.3530 -88.7610 292° West 243 280 13,500 -1,080 Descending FlightAware
04:38PM 42.3670 -88.8090 292° West 244 281 13,000 -480 Descending FlightAware
04:39PM 42.3830 -88.8610 293° West 242 278 13,000  Level FlightAware
04:39PM 42.4000 -88.9110 295° West 243 280 13,000  Level FlightAware
04:39PM 42.4080 -88.9250 308° West 241 277 13,000  Level FlightAware
04:40PM 42.4240 -88.9390 327° Northwest 247 284 13,000  Level FlightAware
04:40PM 42.4380 -88.9420 351° North 256 295 13,000  Level FlightAware
04:40PM 42.4690 -88.9270 20° North 280 322 13,000  Level FlightAware
04:41PM 42.4820 -88.9040 53° Northeast 293 337 13,000  Level FlightAware
04:41PM 42.4850 -88.8820 80° East 296 341 13,000  Level FlightAware
04:41PM 42.4790 -88.8450 102° East 302 348 13,000  Level FlightAware
04:42PM 42.4620 -88.7890 112° Southeast 301 346 13,000  Level FlightAware
04:42PM 42.4440 -88.7280 112° Southeast 299 344 13,000  Level FlightAware
04:43PM 42.4260 -88.6690 112° Southeast 300 345 13,000  Level FlightAware
04:43PM 42.4150 -88.6340 113° Southeast 293 337 13,000  Level FlightAware
04:44PM 42.3950 -88.6140 144° Southeast 282 325 13,000  Level FlightAware
04:44PM 42.3800 -88.6100 169° South 274 315 13,000  Level FlightAware
04:44PM 42.3550 -88.6210 198° South 258 297 13,000  Level FlightAware
04:44PM 42.3420 -88.6400 227° Southwest 251 289 13,000  Level FlightAware
04:45PM 42.3370 -88.6660 255° West 242 278 13,000  Level FlightAware
04:45PM 42.3440 -88.7000 286° West 244 281 13,000  Level FlightAware
04:46PM 42.3580 -88.7500 291° West 246 283 13,000  Level FlightAware
04:46PM 42.3740 -88.8010 293° West 249 287 13,000  Level FlightAware
04:47PM 42.3870 -88.8470 291° West 246 283 13,000  Level FlightAware
04:47PM 42.4030 -88.8990 293° West 241 277 13,000  Level FlightAware
04:48PM 42.4160 -88.9240 305° West 244 281 13,000  Level FlightAware
04:48PM 42.4340 -88.9340 338° Northwest 253 291 13,000  Level FlightAware
04:48PM 42.4680 -88.9240 12° North 278 320 13,000  Level FlightAware
04:49PM 42.4790 -88.9080 47° Northeast 290 334 13,000  Level FlightAware
04:49PM 42.4840 -88.8870 72° East 294 338 13,000  Level FlightAware
04:49PM 42.4760 -88.8370 102° East 300 345 13,000  Level FlightAware
04:50PM 42.4590 -88.7800 112° Southeast 300 345 13,000  Level FlightAware
04:51PM 42.4380 -88.7070 111° Southeast 299 344 13,000  Level FlightAware
04:51PM 42.4210 -88.6520 113° Southeast 299 344 13,000  Level FlightAware
04:51PM 42.4120 -88.6290 118° Southeast 293 337 13,000  Level FlightAware
04:52PM 42.4020 -88.6170 138° Southeast 288 331 13,000  Level FlightAware
04:52PM 42.3770 -88.6060 162° South 277 319 13,000  Level FlightAware
04:52PM 42.3540 -88.6140 194° South 263 303 13,000  Level FlightAware
04:52PM 42.3420 -88.6270 219° Southwest 256 295 13,000  Level FlightAware
04:53PM 42.3330 -88.6470 239° Southwest 248 285 13,000  Level FlightAware
04:53PM 42.3340 -88.6980 272° West 246 283 13,000  Level FlightAware
04:54PM 42.3490 -88.7470 293° West 245 282 13,000  Level FlightAware
04:54PM 42.3630 -88.7950 292° West 247 284 13,000  Level FlightAware
04:55PM 42.3800 -88.8510 292° West 246 283 13,000  Level FlightAware
04:55PM 42.3910 -88.8910 290° West 241 277 13,000  Level FlightAware
04:56PM 42.4010 -88.9180 297° West 243 280 13,000  Level FlightAware
04:56PM 42.4190 -88.9350 325° Northwest 248 285 13,000  Level FlightAware
04:56PM 42.4290 -88.9380 348° North 257 296 13,000  Level FlightAware
04:57PM 42.4530 -88.9260 20° North 294 338 13,000  Level FlightAware
04:57PM 42.4610 -88.9160 43° Northeast 306 352 13,000  Level FlightAware
04:57PM 42.4690 -88.8960 62° Northeast 322 371 13,000  Level FlightAware
04:57PM 42.4730 -88.8760 75° East 327 376 13,000  Level FlightAware
04:58PM 42.4620 -88.8230 106° East 335 386 13,000  Level FlightAware
04:58PM 42.4390 -88.7620 117° Southeast 333 383 13,000  Level FlightAware
04:59PM 42.4120 -88.6920 118° Southeast 331 381 13,000  Level FlightAware
04:59PM 42.3900 -88.6330 117° Southeast 332 382 13,000  Level FlightAware
05:00PM 42.3630 -88.5620 117° Southeast 331 381 13,000  Level FlightAware
05:00PM 42.3420 -88.5030 116° Southeast 333 383 13,000 -180 Level FlightAware
05:01PM 42.3130 -88.4320 119° Southeast 327 376 12,800 -780 Descending FlightAware
05:02PM 42.2900 -88.3760 119° Southeast 321 369 12,100 -1,260 Descending FlightAware
05:02PM 42.2540 -88.3220 132° Southeast 305 351 11,400 -1,260 Descending FlightAware
05:03PM 42.2180 -88.2740 135° Southeast 305 351 10,600 -1,440 Descending FlightAware
05:03PM 42.1970 -88.2290 122° Southeast 311 358 9,900 -1,500 Descending FlightAware
05:03PM 42.1940 -88.2140 105° East 312 359 9,700 -1,500 Descending FlightAware
05:04PM 42.1930 -88.1900 93° East 312 359 9,400 -1,500 Descending FlightAware
05:04PM 42.1880 -88.1610 103° East 305 351 9,000 -1,500 Descending FlightAware
05:04PM 42.1850 -88.1540 120° Southeast 301 346 8,900 -1,020 Descending FlightAware
05:04PM 42.1790 -88.1440 129° Southeast 295 339 8,800 -1,080 Descending FlightAware
05:04PM 42.1580 -88.1200 140° Southeast 289 333 8,400 -1,140 Descending FlightAware
05:05PM 42.1330 -88.0920 140° Southeast 295 339 8,000 -960 Descending FlightAware
05:05PM 42.1110 -88.0690 142° Southeast 290 334 7,700 -1,080 Descending FlightAware
05:05PM 42.0900 -88.0470 142° Southeast 285 328 7,300 -900 Descending FlightAware
05:06PM 42.0700 -88.0260 142° Southeast 281 323 7,100 -480 Descending FlightAware
05:06PM 42.0510 -88.0040 139° Southeast 279 321 7,000 -120 Descending FlightAware
05:07PM 42.0200 -87.9710 142° Southeast 279 321 7,000  Level FlightAware
05:07PM 41.9950 -87.9430 140° Southeast 284 327 7,000  Level FlightAware
05:07PM 41.9750 -87.9190 138° Southeast 287 330 7,000  Level FlightAware
05:07PM 41.9720 -87.9140 129° Southeast 287 330 7,000  Level FlightAware
05:08PM 41.9670 -87.9010 117° Southeast 288 331 7,000  Level FlightAware
05:08PM 41.9640 -87.8810 101° East 285 328 7,000  Level FlightAware
05:08PM 41.9720 -87.8430 74° East 273 314 7,000  Level FlightAware
05:09PM 41.9850 -87.8140 59° Northeast 267 307 7,000 -540 Level FlightAware
05:09PM 41.9950 -87.7910 60° Northeast 265 305 6,700 -900 Descending FlightAware
05:09PM 42.0070 -87.7650 58° Northeast 259 298 6,500 -600 Descending FlightAware
05:09PM 42.0160 -87.7470 56° Northeast 256 295 6,400 -1,140 Descending FlightAware
05:10PM 42.0270 -87.7200 61° Northeast 259 298 5,900 -1,200 Descending FlightAware
05:10PM 42.0370 -87.6980 59° Northeast 254 292 5,700 -1,020 Descending FlightAware
05:10PM 42.0490 -87.6710 59° Northeast 246 283 5,300 -1,200 Descending FlightAware
05:11PM 42.0610 -87.6440 59° Northeast 240 276 4,900 -1,320 Descending FlightAware
05:11PM 42.0680 -87.6170 71° East 239 275 4,400 -1,500 Descending FlightAware
05:11PM 42.0580 -87.5890 116° Southeast 228 262 3,900 -1,740 Descending FlightAware
05:11PM 42.0510 -87.5830 148° Southeast 222 255 3,600 -2,040 Descending FlightAware
05:12PM 42.0440 -87.5810 168° South 221 254 3,400 -1,560 Descending FlightAware
05:12PM 42.0270 -87.5930 208° Southwest 215 247 2,900 -1,440 Descending FlightAware
05:12PM 42.0230 -87.6050 246° West 214 246 2,700 -1,140 Descending FlightAware
05:12PM 42.0180 -87.6210 247° West 217 250 2,500 -420 Descending FlightAware
05:13PM 42.0100 -87.6440 245° Southwest 219 252 2,500  Level FlightAware
05:13PM 42.0030 -87.6760 254° West 219 252 2,500  Level FlightAware
05:13PM 42.0030 -87.7120 270° West 215 247 2,500  Level FlightAware
05:14PM 42.0030 -87.7310 270° West 198 228 2,500  Level FlightAware
05:14PM 42.0030 -87.7600 270° West 187 215 2,500 -420 Level FlightAware
05:14PM 42.0030 -87.7860 270° West 180 207 2,200 -840 Descending FlightAware
05:15PM 42.0030 -87.8100 270° West 166 191 1,900 -780 Descending FlightAware
05:15PM 42.0030 -87.8360 270° West 163 188 1,600 -840 Descending FlightAware
05:16PM 42.0030 -87.8590 270° West 163 188 1,300 -960 Descending FlightAware
05:16PM 42.0030 -87.8810 270° West 159 183 900 -900 Descending FlightAware
05:16PM 42.0030 -87.8930 270° West 158 182 800 -540 Descending FlightAware
05:17PM 42.0030 -87.9090 270° West 135 155 -2,700 Descending FlightAware